Terminal Aerodrome Forecast
Issued by NWS

Current Version | Previous Version | Text Only | Print | Product List | Glossary On
Versions: 1 2 3 4 5 6 7 8 9 10 11 12 13 14 15 16 17 18 19
075
FTUS42 KKEY 212339
TAFMTH
TAF
KMTH 212339Z 2200/2224 16005KT P6SM SCT050
     FM220300 18012KT P6SM SCT028 BKN050
     FM221600 19020G30KT P6SM SCT025=

USA.gov is the U.S. government's official web portal to all federal, state and local government web resources and services.